Pattaya, Thailand

9:16 PM ICT on December 29, 2014 (GMT +0700)
Pratamnak Hill | Change Station
CLOSE
Current Station
Personal Weather Station
Location: Pattaya, CHON BURI
Elevation: 0 ft
Nearby Weather Stations

Elev 0 ft 12.92 °N, 100.86 °E | Updated 4 seconds ago

Mist
Mist
77.7 °F
Feels Like 80 °F
N
3.5
Wind Variable Wind from NE
Gusts 3.5 mph

Today
High -- | Low -- °F
--% Chance of Precip.
Yesterday
High -- | Low -- °F
Precip. -- in
6:37 AM 5:59 PM
First Quarter, 59% visible
Pressure 29.92 in
Visibility 2.5 miles
Clouds
Heat Index 80 °F
Dew Point 65 °F
Humidity 66%
Rainfall 0.00 in
Snow Depth Not available.
UV Not available.
Pollen Not available.
Air Quality Not available.
Flu Activity Not available.
METAR VTBU 291400Z 02003KT 4000 BR NSC 24/18 Q1013 A2993

More Conditions Fewer Conditions

Pressure 29.92 in
Visibility 2.5 miles
Clouds
Heat Index 80 °F
Dew Point 65 °F
Humidity 66%
Rainfall 0.00 in
Snow Depth Not available.
UV Not available.
Pollen Not available.
Air Quality Not available.
Flu Activity Not available.
METAR VTBU 291400Z 02003KT 4000 BR NSC 24/18 Q1013 A2993

More Conditions Fewer Conditions

10-Day Weather Forecast

Almanac

Astronomy

Dec. 29, 2014 Rise Set
Actual Time
Civil Twilight
Nautical Twilight
Astronomical Twilight
Moon
Length of Visible Light
Length of Day
Tomorrow will be .
, % of the Moon is Illuminated

Today's Extremes

Country Highs Country Lows

Community

WunderPhotos

Upload Photos

1,781,587 photos uploaded!

WunderBlogs® & News

Nearby

Air Quality

  Air Quality AQ Index Pollutant
Not available.

Snow Depth

Station Depth Elevation

Earthquake Activity

City Distance Mag. Time & Date
Minimum magnitude displayed is 2.5.

Coastal Water Temperatures

Place Temperature

Nearby Weather Stations